Time;durP1;ratioP1;P1;durP2;ratioP2;P2;SDS_P1;SDS_P2;PMS_P1;PMS_P2;Temp;Humidity;BMP_temperature;BMP_pressure;BME280_temperature;BME280_humidity;BME280_pressure;Samples;Min_cycle;Max_cycle;Signal;HPM_P1;HPM_P2
2022/07/13 00:00:11;;;;;;;7.75;3.08;;;20.70;99.90;;;;;;5066234;28;20605;-68
2022/07/13 00:02:37;;;;;;;6.13;2.90;;;20.70;99.90;;;;;;5063577;28;20489;-68
2022/07/13 00:05:03;;;;;;;4.82;2.78;;;20.70;99.90;;;;;;5063336;28;20295;-67
2022/07/13 00:07:29;;;;;;;4.00;2.97;;;20.70;99.90;;;;;;5066217;28;20055;-67
2022/07/13 00:09:55;;;;;;;6.30;2.70;;;20.70;99.90;;;;;;5066349;28;20049;-67
2022/07/13 00:12:20;;;;;;;4.22;3.20;;;20.70;99.90;;;;;;5054429;28;20151;-66
2022/07/13 00:14:46;;;;;;;4.57;3.15;;;20.70;99.90;;;;;;5063836;28;20497;-68
2022/07/13 00:17:11;;;;;;;5.95;2.83;;;20.70;99.90;;;;;;5062003;28;20049;-65
2022/07/13 00:19:37;;;;;;;10.25;3.13;;;20.70;99.90;;;;;;5056496;28;20036;-67
2022/07/13 00:22:03;;;;;;;3.78;3.13;;;20.70;99.90;;;;;;5066362;28;20041;-66
2022/07/13 00:24:28;;;;;;;3.92;3.10;;;20.70;99.90;;;;;;5069253;28;20068;-67
2022/07/13 00:26:54;;;;;;;5.18;3.30;;;20.70;99.90;;;;;;5066361;28;20111;-68
2022/07/13 00:29:20;;;;;;;4.35;3.20;;;20.70;99.90;;;;;;5065381;28;20036;-69
2022/07/13 00:31:46;;;;;;;7.32;3.00;;;20.70;99.90;;;;;;5059138;28;20098;-68
2022/07/13 00:34:13;;;;;;;4.40;2.83;;;20.70;99.90;;;;;;5062510;28;20045;-67
2022/07/13 00:36:39;;;;;;;6.93;3.50;;;20.70;99.90;;;;;;5064343;28;20064;-68
2022/07/13 00:39:05;;;;;;;5.90;3.08;;;20.70;99.90;;;;;;5058102;28;20506;-66
2022/07/13 00:41:30;;;;;;;6.95;2.95;;;20.70;99.90;;;;;;5040025;28;20130;-67
2022/07/13 00:44:09;;;;;;;4.53;3.25;;;20.70;99.90;;;;;;5077717;28;20521;-67
2022/07/13 00:46:36;;;;;;;11.10;2.85;;;20.70;99.90;;;;;;5067563;28;20116;-67
2022/07/13 00:49:03;;;;;;;3.25;2.70;;;20.70;99.90;;;;;;5060065;28;20147;-67
2022/07/13 00:51:29;;;;;;;6.07;3.35;;;20.70;99.90;;;;;;5059711;28;20716;-67
2022/07/13 00:53:55;;;;;;;5.25;3.53;;;20.70;99.90;;;;;;5067580;28;20488;-67
2022/07/13 00:56:20;;;;;;;7.35;3.63;;;20.70;99.90;;;;;;5058157;28;20047;-67
2022/07/13 00:58:49;;;;;;;7.18;3.85;;;20.70;99.90;;;;;;5063596;28;20078;-66
2022/07/13 01:01:16;;;;;;;6.07;3.97;;;20.70;99.90;;;;;;5065688;28;20144;-67
2022/07/13 01:03:41;;;;;;;6.38;3.95;;;20.70;99.90;;;;;;5060339;28;20044;-67
2022/07/13 01:06:08;;;;;;;5.68;3.60;;;20.70;99.90;;;;;;5056860;28;20522;-68
2022/07/13 01:08:35;;;;;;;5.32;3.90;;;20.70;99.90;;;;;;5056903;28;20048;-67
2022/07/13 01:11:01;;;;;;;7.73;3.50;;;20.70;99.90;;;;;;5055850;28;20098;-68
2022/07/13 01:13:27;;;;;;;6.93;4.13;;;20.70;99.90;;;;;;5066816;28;20352;-68
2022/07/13 01:15:53;;;;;;;5.65;4.40;;;20.70;99.90;;;;;;5064889;28;20529;-67
2022/07/13 01:18:20;;;;;;;5.78;3.97;;;20.70;99.90;;;;;;5060596;28;20048;-68
2022/07/13 01:20:46;;;;;;;7.70;3.83;;;20.70;99.90;;;;;;5059517;28;20099;-67
2022/07/13 01:23:14;;;;;;;6.82;4.07;;;20.70;99.90;;;;;;5041775;28;20414;-67
2022/07/13 01:25:41;;;;;;;4.57;4.07;;;20.70;99.90;;;;;;5066938;28;20036;-68
2022/07/13 01:28:07;;;;;;;4.97;4.30;;;20.70;99.90;;;;;;5066584;28;20040;-68
2022/07/13 01:30:33;;;;;;;6.10;4.25;;;20.70;99.90;;;;;;5065684;28;20394;-66
2022/07/13 01:32:59;;;;;;;5.70;4.25;;;20.60;99.90;;;;;;5057207;28;20037;-68
2022/07/13 01:35:27;;;;;;;6.55;4.68;;;20.60;99.90;;;;;;5057918;28;20051;-68
2022/07/13 01:37:54;;;;;;;8.63;4.43;;;20.60;99.90;;;;;;5055789;28;20052;-66
2022/07/13 01:40:20;;;;;;;6.70;4.72;;;20.60;99.90;;;;;;5058034;28;20080;-67
2022/07/13 01:42:51;;;;;;;5.72;3.80;;;20.60;99.90;;;;;;5063511;28;20064;-67
2022/07/13 01:45:18;;;;;;;5.93;3.83;;;20.60;99.90;;;;;;5084014;28;20560;-68
2022/07/13 01:47:47;;;;;;;9.38;4.80;;;20.60;99.90;;;;;;5068849;28;20074;-67
2022/07/13 01:50:14;;;;;;;7.63;4.38;;;20.60;99.90;;;;;;5065647;28;20052;-68
2022/07/13 01:52:40;;;;;;;6.05;4.70;;;20.60;99.90;;;;;;5063999;28;20041;-67
2022/07/13 01:55:07;;;;;;;7.20;4.85;;;20.60;99.90;;;;;;5058710;28;20036;-67
2022/07/13 01:57:34;;;;;;;7.57;5.00;;;20.60;99.90;;;;;;5055811;28;20102;-67
2022/07/13 02:00:01;;;;;;;6.93;4.95;;;20.60;99.90;;;;;;5072864;28;20178;-67
2022/07/13 02:02:26;;;;;;;9.23;4.45;;;20.50;99.90;;;;;;5064854;28;20052;-66
2022/07/13 02:04:54;;;;;;;7.93;5.10;;;20.50;99.90;;;;;;5065867;28;20068;-67
2022/07/13 02:07:21;;;;;;;6.90;4.90;;;20.50;99.90;;;;;;5069100;28;20037;-67
2022/07/13 02:09:47;;;;;;;7.13;4.60;;;20.50;99.90;;;;;;5049973;28;20051;-68
2022/07/13 02:12:13;;;;;;;6.70;4.88;;;20.50;99.90;;;;;;5052264;28;20434;-69
2022/07/13 02:14:39;;;;;;;7.03;4.93;;;20.50;99.90;;;;;;5058690;28;20051;-67
2022/07/13 02:17:04;;;;;;;6.70;4.95;;;20.60;99.90;;;;;;5062192;28;20376;-67
2022/07/13 02:19:30;;;;;;;5.93;5.28;;;20.50;99.90;;;;;;5062450;28;20067;-67
2022/07/13 02:21:55;;;;;;;11.23;5.47;;;20.50;99.90;;;;;;5066816;28;20059;-67
2022/07/13 02:24:21;;;;;;;7.68;5.13;;;20.50;99.90;;;;;;5059192;28;20074;-67
2022/07/13 02:26:47;;;;;;;6.45;5.00;;;20.60;99.90;;;;;;5072462;28;20068;-67
2022/07/13 02:29:12;;;;;;;7.65;5.15;;;20.50;99.90;;;;;;5063778;28;20045;-67
2022/07/13 02:31:38;;;;;;;6.72;5.53;;;20.50;99.90;;;;;;5059499;28;20079;-67
2022/07/13 02:34:04;;;;;;;6.40;5.47;;;20.50;99.90;;;;;;5067680;28;20036;-68
2022/07/13 02:36:29;;;;;;;7.88;5.43;;;20.60;99.90;;;;;;5070987;28;20048;-67
2022/07/13 02:38:55;;;;;;;6.50;5.55;;;20.60;99.90;;;;;;5064773;28;20046;-68
2022/07/13 02:41:21;;;;;;;6.20;5.40;;;20.50;99.90;;;;;;5071631;28;20131;-66
2022/07/13 02:43:46;;;;;;;7.97;5.45;;;20.60;99.90;;;;;;5069731;28;20028;-66
2022/07/13 02:46:12;;;;;;;5.15;4.57;;;20.60;99.90;;;;;;5060652;28;20052;-67
2022/07/13 02:48:38;;;;;;;6.60;5.43;;;20.60;99.90;;;;;;5066690;28;20509;-67
2022/07/13 02:51:04;;;;;;;7.82;5.65;;;20.60;99.90;;;;;;5068862;28;20049;-67
2022/07/13 02:53:30;;;;;;;8.70;6.07;;;20.50;99.90;;;;;;5062544;28;20037;-68
2022/07/13 02:55:55;;;;;;;7.95;5.20;;;20.60;99.90;;;;;;5053553;28;20044;-68
2022/07/13 02:58:21;;;;;;;8.80;5.65;;;20.60;99.90;;;;;;5054909;28;20045;-67
2022/07/13 03:00:47;;;;;;;12.18;5.72;;;20.50;99.90;;;;;;5062957;28;20124;-65
2022/07/13 03:03:12;;;;;;;9.07;5.55;;;20.50;99.90;;;;;;5060302;28;20399;-66
2022/07/13 03:05:38;;;;;;;7.22;5.32;;;20.50;99.90;;;;;;5052742;28;20542;-68
2022/07/13 03:08:04;;;;;;;7.10;5.55;;;20.50;99.90;;;;;;5069075;28;20045;-66
2022/07/13 03:10:31;;;;;;;6.50;5.35;;;20.50;99.90;;;;;;5071423;28;20032;-67
2022/07/13 03:12:58;;;;;;;6.13;5.53;;;20.50;99.90;;;;;;5057091;28;20052;-67
2022/07/13 03:15:24;;;;;;;8.15;6.03;;;20.50;99.90;;;;;;5068957;28;20414;-67
2022/07/13 03:17:50;;;;;;;8.35;6.13;;;20.50;99.90;;;;;;5053770;28;20182;-67
2022/07/13 03:20:16;;;;;;;7.07;5.35;;;20.50;99.90;;;;;;5066290;28;20131;-68
2022/07/13 03:22:41;;;;;;;8.65;5.53;;;20.50;99.90;;;;;;5068581;28;20051;-68
2022/07/13 03:25:08;;;;;;;13.02;5.72;;;20.50;99.90;;;;;;5044899;28;20045;-67
2022/07/13 03:27:33;;;;;;;6.35;5.20;;;20.50;99.90;;;;;;5065496;28;20069;-67
2022/07/13 03:29:59;;;;;;;7.15;5.40;;;20.40;99.90;;;;;;5067041;28;20406;-67
2022/07/13 03:32:25;;;;;;;10.38;6.50;;;20.40;99.90;;;;;;5067403;28;20033;-68
2022/07/13 03:34:50;;;;;;;8.75;5.15;;;20.40;99.90;;;;;;5068092;28;20036;-68
2022/07/13 03:37:16;;;;;;;14.02;5.90;;;20.40;99.90;;;;;;5064153;28;20140;-67
2022/07/13 03:39:42;;;;;;;9.43;5.72;;;20.40;99.90;;;;;;5068286;28;20127;-67
2022/07/13 03:42:07;;;;;;;7.75;5.88;;;20.40;99.90;;;;;;5062796;28;20073;-66
2022/07/13 03:44:33;;;;;;;7.13;5.50;;;20.40;99.90;;;;;;5067180;28;20041;-67
2022/07/13 03:47:00;;;;;;;6.95;5.53;;;20.40;99.90;;;;;;5043128;28;20041;-66
2022/07/13 03:49:26;;;;;;;9.30;5.38;;;20.40;99.90;;;;;;5063083;28;20450;-69
2022/07/13 03:51:51;;;;;;;6.90;5.75;;;20.40;99.90;;;;;;5046264;28;20049;-67
2022/07/13 03:54:17;;;;;;;7.47;5.30;;;20.40;99.90;;;;;;5063264;28;20102;-67
2022/07/13 03:56:43;;;;;;;7.05;5.35;;;20.40;99.90;;;;;;5065638;28;20123;-67
2022/07/13 03:59:09;;;;;;;6.60;5.20;;;20.40;99.90;;;;;;5055237;28;20033;-67
2022/07/13 04:01:34;;;;;;;6.43;5.05;;;20.40;99.90;;;;;;5056443;28;20149;-67
2022/07/13 04:04:00;;;;;;;6.15;5.05;;;20.40;99.90;;;;;;5069853;28;20047;-67
2022/07/13 04:06:26;;;;;;;9.95;5.40;;;20.40;99.90;;;;;;5060077;28;20467;-67
2022/07/13 04:08:52;;;;;;;6.72;5.10;;;20.30;99.90;;;;;;5055759;28;20257;-67
2022/07/13 04:11:18;;;;;;;7.43;4.97;;;20.30;99.90;;;;;;5060268;28;20127;-68
2022/07/13 04:13:43;;;;;;;9.20;5.10;;;20.40;99.90;;;;;;5065219;28;20044;-66
2022/07/13 04:16:09;;;;;;;7.38;5.10;;;20.40;99.90;;;;;;5066332;28;20045;-67
2022/07/13 04:18:36;;;;;;;9.25;4.93;;;20.40;99.90;;;;;;5065322;28;20097;-68
2022/07/13 04:21:02;;;;;;;5.63;4.95;;;20.30;99.90;;;;;;5064863;28;20105;-66
2022/07/13 04:23:29;;;;;;;6.28;5.28;;;20.30;99.90;;;;;;5066360;28;20399;-68
2022/07/13 04:25:56;;;;;;;7.95;5.00;;;20.40;99.90;;;;;;5050285;28;20043;-67
2022/07/13 04:28:22;;;;;;;7.93;5.00;;;20.40;99.90;;;;;;5068692;28;20037;-67
2022/07/13 04:30:47;;;;;;;6.57;4.93;;;20.40;99.90;;;;;;5068355;28;20040;-66
2022/07/13 04:33:14;;;;;;;8.55;4.63;;;20.40;99.90;;;;;;5062464;28;20127;-68
2022/07/13 04:35:39;;;;;;;6.82;4.78;;;20.40;99.90;;;;;;5063944;28;20367;-66
2022/07/13 04:38:05;;;;;;;6.18;5.30;;;20.40;99.90;;;;;;5063313;28;20044;-66
2022/07/13 04:40:30;;;;;;;6.75;4.32;;;20.40;99.90;;;;;;5066956;28;20044;-67
2022/07/13 04:42:56;;;;;;;7.70;5.13;;;20.50;99.90;;;;;;5057652;28;20060;-67
2022/07/13 04:45:22;;;;;;;5.95;4.88;;;20.50;99.90;;;;;;5066757;28;20155;-67
2022/07/13 04:47:49;;;;;;;7.82;4.90;;;20.50;99.90;;;;;;5052653;28;20041;-67
2022/07/13 04:50:14;;;;;;;7.93;5.20;;;20.50;99.90;;;;;;5066424;28;20049;-67
2022/07/13 04:52:40;;;;;;;5.78;5.15;;;20.50;99.90;;;;;;5062698;28;20033;-68
2022/07/13 04:55:07;;;;;;;6.85;5.32;;;20.60;99.90;;;;;;5063226;28;20040;-67
2022/07/13 04:57:33;;;;;;;6.50;5.40;;;20.60;99.90;;;;;;5056053;28;20053;-67
2022/07/13 04:59:59;;;;;;;9.45;5.45;;;20.60;99.90;;;;;;5058541;28;20134;-68
2022/07/13 05:02:24;;;;;;;6.95;5.18;;;20.60;99.90;;;;;;5062674;28;20037;-67
2022/07/13 05:04:50;;;;;;;7.00;5.25;;;20.60;99.90;;;;;;5065685;28;20103;-67
2022/07/13 05:07:16;;;;;;;8.13;5.75;;;20.60;99.90;;;;;;5059686;28;20047;-66
2022/07/13 05:09:43;;;;;;;5.78;5.18;;;20.60;99.90;;;;;;5063567;28;20078;-67
2022/07/13 05:12:09;;;;;;;6.00;5.18;;;20.60;99.90;;;;;;5057469;28;20536;-66
2022/07/13 05:14:35;;;;;;;6.72;5.18;;;20.60;99.90;;;;;;5054512;28;20087;-67
2022/07/13 05:17:01;;;;;;;9.45;5.60;;;20.60;99.90;;;;;;5065041;28;20068;-66
2022/07/13 05:19:27;;;;;;;7.50;5.60;;;20.60;99.90;;;;;;5040980;28;22210;-67
2022/07/13 05:21:53;;;;;;;9.27;6.28;;;20.60;99.90;;;;;;5057417;28;20041;-68
2022/07/13 05:24:18;;;;;;;7.82;5.20;;;20.50;99.90;;;;;;5057743;28;20115;-67
2022/07/13 05:26:44;;;;;;;11.80;5.72;;;20.60;99.90;;;;;;5058499;28;20078;-68
2022/07/13 05:29:10;;;;;;;8.55;6.00;;;20.50;99.90;;;;;;5053987;28;20043;-68
2022/07/13 05:31:35;;;;;;;9.95;6.35;;;20.60;99.90;;;;;;5056403;28;20111;-68
2022/07/13 05:34:01;;;;;;;13.43;5.80;;;20.60;99.90;;;;;;5054309;28;20037;-67
2022/07/13 05:36:27;;;;;;;10.90;5.78;;;20.60;99.90;;;;;;5056473;28;20032;-67
2022/07/13 05:38:53;;;;;;;8.20;6.70;;;20.60;99.90;;;;;;5055463;28;20041;-67
2022/07/13 05:41:18;;;;;;;14.25;6.63;;;20.60;99.90;;;;;;5054662;28;20051;-67
2022/07/13 05:43:44;;;;;;;9.63;6.20;;;20.60;99.90;;;;;;5058680;28;20045;-68
2022/07/13 05:46:10;;;;;;;13.65;6.40;;;20.60;99.90;;;;;;5052928;28;20060;-67
2022/07/13 05:48:36;;;;;;;12.50;7.20;;;20.60;99.90;;;;;;5062592;28;20138;-67
2022/07/13 05:51:03;;;;;;;9.43;6.88;;;20.60;99.90;;;;;;5061791;28;20048;-67
2022/07/13 05:53:29;;;;;;;13.00;7.07;;;20.60;99.90;;;;;;5059694;28;20505;-67
2022/07/13 05:55:54;;;;;;;13.20;7.10;;;20.60;99.90;;;;;;5057005;28;20041;-67
2022/07/13 05:58:21;;;;;;;9.43;7.75;;;20.70;99.90;;;;;;5051075;28;20132;-67
2022/07/13 06:00:47;;;;;;;12.82;7.63;;;20.70;99.90;;;;;;5065670;28;21417;-67
2022/07/13 06:03:12;;;;;;;8.43;7.53;;;20.70;99.90;;;;;;5064434;28;20083;-67
2022/07/13 06:05:39;;;;;;;13.52;7.80;;;20.70;99.90;;;;;;5046989;28;20049;-67
2022/07/13 06:08:04;;;;;;;9.00;7.93;;;20.70;99.90;;;;;;5045233;28;20110;-67
2022/07/13 06:10:30;;;;;;;13.02;7.68;;;20.70;99.90;;;;;;5057841;28;20040;-67
2022/07/13 06:12:56;;;;;;;15.73;8.25;;;20.80;99.90;;;;;;5046213;28;20045;-66
2022/07/13 06:15:22;;;;;;;10.98;8.25;;;20.80;99.90;;;;;;5066311;28;20753;-67
2022/07/13 06:17:47;;;;;;;14.18;8.20;;;20.80;99.90;;;;;;5059764;28;20047;-66
2022/07/13 06:20:13;;;;;;;11.88;9.05;;;20.80;99.90;;;;;;5060854;28;20097;-67
2022/07/13 06:22:42;;;;;;;12.25;8.85;;;20.90;99.90;;;;;;5052746;28;20033;-68
2022/07/13 06:25:08;;;;;;;10.77;9.18;;;20.90;99.90;;;;;;5060895;28;20072;-67
2022/07/13 06:27:34;;;;;;;23.55;9.57;;;21.00;99.90;;;;;;5057529;28;20037;-67
2022/07/13 06:29:59;;;;;;;10.43;8.68;;;21.00;99.90;;;;;;5063182;28;20048;-67
2022/07/13 06:32:26;;;;;;;11.15;8.63;;;21.10;99.90;;;;;;5062242;28;20037;-68
2022/07/13 06:34:52;;;;;;;19.75;9.55;;;21.10;99.90;;;;;;5066652;28;20053;-67
2022/07/13 06:37:18;;;;;;;10.45;8.73;;;21.20;99.90;;;;;;5058061;28;20475;-67
2022/07/13 06:39:43;;;;;;;14.32;8.65;;;21.20;99.90;;;;;;5056665;28;20041;-67
2022/07/13 06:42:11;;;;;;;11.85;8.43;;;21.30;99.90;;;;;;5057840;28;20037;-67
2022/07/13 06:44:37;;;;;;;12.90;8.27;;;21.30;99.90;;;;;;5068915;28;20047;-67
2022/07/13 06:47:03;;;;;;;9.65;8.00;;;21.40;99.90;;;;;;5061133;28;20045;-66
2022/07/13 06:49:29;;;;;;;14.93;8.88;;;21.40;99.90;;;;;;5063592;28;20048;-67
2022/07/13 06:51:55;;;;;;;11.50;8.20;;;21.50;99.90;;;;;;5060862;28;20041;-67
2022/07/13 06:54:21;;;;;;;16.50;8.35;;;21.60;99.90;;;;;;5065260;28;20075;-67
2022/07/13 06:56:46;;;;;;;11.40;8.35;;;21.80;99.90;;;;;;5072168;28;20083;-68
2022/07/13 06:59:12;;;;;;;21.52;9.00;;;21.90;99.90;;;;;;5051237;28;20562;-66
2022/07/13 07:01:41;;;;;;;13.68;8.90;;;22.10;99.90;;;;;;5071156;28;20040;-67
2022/07/13 07:04:06;;;;;;;14.38;8.30;;;22.30;99.90;;;;;;5066157;28;20126;-69
2022/07/13 07:06:32;;;;;;;14.40;8.75;;;22.40;99.90;;;;;;5060646;28;20048;-67
2022/07/13 07:08:58;;;;;;;14.52;8.55;;;22.50;99.90;;;;;;5061412;28;20040;-67
2022/07/13 07:11:24;;;;;;;17.15;9.15;;;22.60;99.90;;;;;;5063198;28;20166;-68
2022/07/13 07:13:50;;;;;;;11.82;7.70;;;22.60;99.90;;;;;;5065456;28;20086;-68
2022/07/13 07:16:16;;;;;;;12.63;8.45;;;22.70;99.90;;;;;;5069677;28;20037;-67
2022/07/13 07:18:44;;;;;;;12.15;8.02;;;22.80;99.90;;;;;;5055141;28;20059;-67
2022/07/13 07:21:10;;;;;;;10.55;8.10;;;22.90;99.90;;;;;;5061621;28;20426;-66
2022/07/13 07:23:35;;;;;;;13.75;8.40;;;23.00;99.90;;;;;;5061291;28;20048;-66
2022/07/13 07:26:02;;;;;;;13.20;8.13;;;23.10;99.90;;;;;;5068483;28;20395;-67
2022/07/13 07:28:28;;;;;;;15.30;8.80;;;23.20;99.90;;;;;;5065182;28;20098;-67
2022/07/13 07:30:53;;;;;;;13.35;8.02;;;23.20;99.90;;;;;;5061937;28;20048;-67
2022/07/13 07:33:20;;;;;;;14.85;7.88;;;23.20;99.90;;;;;;5067274;28;20124;-67
2022/07/13 07:35:45;;;;;;;16.70;8.30;;;23.10;99.90;;;;;;5065326;28;20124;-67
2022/07/13 07:38:14;;;;;;;11.95;7.32;;;23.10;99.90;;;;;;5068034;28;20563;-67
2022/07/13 07:40:40;;;;;;;12.95;8.25;;;23.20;99.90;;;;;;5053508;28;20053;-66
2022/07/13 07:43:05;;;;;;;12.35;7.85;;;23.40;99.90;;;;;;5072585;28;20044;-67
2022/07/13 07:45:31;;;;;;;13.40;7.43;;;23.50;99.90;;;;;;5070831;28;20048;-68
2022/07/13 07:47:57;;;;;;;13.45;8.23;;;23.70;99.90;;;;;;5070496;28;20040;-66
2022/07/13 07:50:22;;;;;;;16.83;7.55;;;23.80;99.90;;;;;;5070438;28;20161;-66
2022/07/13 07:52:48;;;;;;;9.00;6.82;;;23.90;99.90;;;;;;5071954;28;20119;-68
2022/07/13 07:55:14;;;;;;;15.95;7.88;;;23.90;99.90;;;;;;5064639;28;20114;-66
2022/07/13 07:57:50;;;;;;;10.38;7.63;;;24.00;99.90;;;;;;5065751;28;20518;-67
2022/07/13 08:00:16;;;;;;;11.35;7.68;;;24.20;99.90;;;;;;5063466;28;20101;-67
2022/07/13 08:02:42;;;;;;;15.90;9.10;;;24.20;99.90;;;;;;5064335;28;20044;-66
2022/07/13 08:05:08;;;;;;;14.97;8.17;;;24.30;99.90;;;;;;5067718;28;20052;-66
2022/07/13 08:07:38;;;;;;;13.45;8.55;;;24.40;99.90;;;;;;5069043;28;20390;-67
2022/07/13 08:10:04;;;;;;;14.55;8.50;;;24.50;99.90;;;;;;5069317;28;20495;-67
2022/07/13 08:12:33;;;;;;;13.88;8.38;;;24.50;99.90;;;;;;5070197;28;20037;-67
2022/07/13 08:14:58;;;;;;;10.95;8.10;;;24.50;99.90;;;;;;5065498;28;20048;-66
2022/07/13 08:17:24;;;;;;;15.90;8.55;;;24.60;99.90;;;;;;5054935;28;20045;-66
2022/07/13 08:19:50;;;;;;;13.65;9.30;;;24.60;99.90;;;;;;5059162;28;20486;-68
2022/07/13 08:22:15;;;;;;;16.38;9.82;;;24.70;99.90;;;;;;5059372;28;20056;-67
2022/07/13 08:24:41;;;;;;;13.05;8.52;;;24.70;99.90;;;;;;5061228;28;20049;-67
2022/07/13 08:27:07;;;;;;;15.85;8.23;;;24.70;99.90;;;;;;5065874;28;20071;-67
2022/07/13 08:29:34;;;;;;;13.95;8.57;;;24.80;99.90;;;;;;5064272;28;20044;-67
2022/07/13 08:32:00;;;;;;;16.03;8.03;;;24.90;99.90;;;;;;5062668;28;20047;-67
2022/07/13 08:39:54;;;;;;;10.35;6.30;;;25.10;99.90;;;;;;5068472;28;20131;-67
2022/07/13 08:42:20;;;;;;;12.73;6.75;;;25.10;99.90;;;;;;5062115;28;20567;-68
2022/07/13 08:44:46;;;;;;;10.73;6.50;;;25.10;99.90;;;;;;5067550;28;20036;-66
2022/07/13 08:47:11;;;;;;;13.68;7.05;;;25.20;99.90;;;;;;5062360;28;20505;-67
2022/07/13 08:49:38;;;;;;;8.95;5.38;;;25.20;99.90;;;;;;5059808;28;20037;-66
2022/07/13 08:52:04;;;;;;;10.63;5.75;;;25.20;99.90;;;;;;5064625;28;20417;-67
2022/07/13 08:54:31;;;;;;;8.95;6.15;;;25.20;99.90;;;;;;5059539;28;20037;-68
2022/07/13 08:56:57;;;;;;;11.00;6.25;;;25.30;99.90;;;;;;5064610;28;20048;-67
2022/07/13 08:59:23;;;;;;;7.53;5.07;;;25.30;99.90;;;;;;5065299;28;20518;-67
2022/07/13 09:01:49;;;;;;;10.35;4.90;;;25.40;99.90;;;;;;5055907;28;20502;-67
2022/07/13 09:04:15;;;;;;;10.40;6.03;;;25.50;99.90;;;;;;5067864;28;20390;-67
2022/07/13 09:06:43;;;;;;;15.80;3.92;;;25.60;99.90;;;;;;5057078;28;20049;-68
2022/07/13 09:09:23;;;;;;;8.57;3.95;;;25.70;98.90;;;;;;5061260;28;20098;-67
2022/07/13 09:11:49;;;;;;;6.85;3.45;;;25.80;98.10;;;;;;5054990;28;20041;-68
2022/07/13 09:14:24;;;;;;;6.03;3.45;;;25.80;98.20;;;;;;5059062;28;20044;-68
2022/07/13 09:16:52;;;;;;;6.72;3.58;;;25.80;97.50;;;;;;5059160;28;20087;-66
2022/07/13 09:19:18;;;;;;;7.15;3.90;;;25.80;97.10;;;;;;5060700;28;20070;-67
2022/07/13 09:21:44;;;;;;;8.15;4.18;;;25.90;97.60;;;;;;5064506;28;20081;-68
2022/07/13 09:24:12;;;;;;;9.40;4.40;;;25.90;98.30;;;;;;5059237;28;20491;-65
2022/07/13 09:26:46;;;;;;;11.65;4.53;;;25.90;96.80;;;;;;5057931;28;20415;-67
2022/07/13 09:29:13;;;;;;;9.10;4.38;;;26.00;97.80;;;;;;5057820;28;20041;-68
2022/07/13 09:31:52;;;;;;;5.90;3.70;;;26.10;97.90;;;;;;5057462;28;20448;-67
2022/07/13 09:34:19;;;;;;;9.90;4.80;;;26.20;98.10;;;;;;5059999;28;20497;-67
2022/07/13 09:36:48;;;;;;;11.15;4.10;;;26.40;97.50;;;;;;5068252;28;20169;-66
2022/07/13 09:39:13;;;;;;;7.38;4.07;;;26.60;96.30;;;;;;5059799;28;20039;-68
2022/07/13 09:41:41;;;;;;;9.35;3.80;;;27.00;97.00;;;;;;5061969;28;20041;-69
2022/07/13 09:47:04;;;;;;;7.88;4.32;;;26.70;96.10;;;;;;5060102;28;20060;-67
2022/07/13 09:49:37;;;;;;;6.30;3.30;;;26.70;96.10;;;;;;5061943;28;20084;-67
2022/07/13 09:52:05;;;;;;;7.55;3.33;;;26.70;93.90;;;;;;5058825;28;20094;-68
2022/07/13 09:54:33;;;;;;;6.57;4.63;;;26.70;93.70;;;;;;5064064;28;20040;-68
2022/07/13 09:57:05;;;;;;;6.22;3.58;;;26.60;93.70;;;;;;5061509;28;20106;-67
2022/07/13 09:59:31;;;;;;;6.60;4.22;;;26.50;93.90;;;;;;5067550;28;20085;-67
2022/07/13 10:01:57;;;;;;;8.15;3.75;;;26.60;93.90;;;;;;5062501;28;20045;-67
2022/07/13 10:04:23;;;;;;;10.57;5.18;;;26.70;94.40;;;;;;5069126;28;20391;-67
2022/07/13 10:06:50;;;;;;;8.30;5.63;;;26.70;94.50;;;;;;5063891;28;20139;-68
2022/07/13 10:09:25;;;;;;;8.15;5.47;;;26.80;94.50;;;;;;5063887;28;20048;-67
2022/07/13 10:11:51;;;;;;;8.30;3.90;;;26.70;94.50;;;;;;5068159;28;20048;-68
2022/07/13 10:14:18;;;;;;;6.95;3.80;;;26.40;94.40;;;;;;5059107;28;20509;-68
2022/07/13 10:16:45;;;;;;;5.97;3.63;;;26.90;94.60;;;;;;5042318;28;20264;-67
2022/07/13 10:19:12;;;;;;;10.85;3.83;;;26.80;93.90;;;;;;5055760;28;20429;-69
2022/07/13 10:22:13;;;;;;;9.60;3.28;;;26.80;93.70;;;;;;5069436;28;20047;-67
2022/07/13 10:24:53;;;;;;;6.63;2.55;;;26.80;92.70;;;;;;5053661;28;20139;-66
2022/07/13 10:27:26;;;;;;;4.97;2.63;;;26.70;91.10;;;;;;5058553;28;20041;-70
2022/07/13 10:30:17;;;;;;;5.07;2.70;;;26.80;91.40;;;;;;5056405;28;20056;-69
2022/07/13 10:32:44;;;;;;;8.40;2.95;;;26.80;91.00;;;;;;5053690;28;20051;-68
2022/07/13 10:35:16;;;;;;;4.22;2.80;;;26.90;91.10;;;;;;5060015;28;20094;-68
2022/07/13 10:38:00;;;;;;;3.88;2.38;;;27.00;90.70;;;;;;5064943;28;20070;-69
2022/07/13 10:40:27;;;;;;;4.22;2.35;;;27.20;90.90;;;;;;5069623;28;20049;-69
2022/07/13 10:43:04;;;;;;;3.83;2.00;;;27.30;90.20;;;;;;5073326;28;20053;-68
2022/07/13 10:45:53;;;;;;;6.15;2.47;;;27.40;89.50;;;;;;5073143;28;20059;-68
2022/07/13 10:48:25;;;;;;;4.55;1.88;;;27.50;88.80;;;;;;5053667;28;20434;-70
2022/07/13 10:50:58;;;;;;;5.28;2.50;;;27.60;89.50;;;;;;5069431;28;20044;-68
2022/07/13 10:53:46;;;;;;;5.95;2.55;;;27.90;87.20;;;;;;5072615;28;20032;-69
2022/07/13 10:56:19;;;;;;;5.18;2.83;;;28.00;86.00;;;;;;5068942;28;20399;-68
2022/07/13 10:58:47;;;;;;;4.90;2.70;;;28.00;86.00;;;;;;5057881;28;20071;-67
2022/07/13 11:01:43;;;;;;;5.55;2.40;;;27.90;85.60;;;;;;5071708;28;20040;-68
2022/07/13 11:04:14;;;;;;;5.45;3.40;;;27.90;84.40;;;;;;5060259;28;20041;-68
2022/07/13 11:06:40;;;;;;;6.03;2.78;;;27.90;84.60;;;;;;5072199;28;20052;-69
2022/07/13 11:09:12;;;;;;;3.70;2.80;;;27.90;85.30;;;;;;5059412;28;20201;-69
2022/07/13 11:11:51;;;;;;;2.80;2.00;;;28.00;84.90;;;;;;5068955;28;20048;-68
2022/07/13 11:14:35;;;;;;;9.65;2.10;;;28.20;84.00;;;;;;5051799;28;20090;-68
2022/07/13 11:17:21;;;;;;;3.78;2.20;;;28.20;81.70;;;;;;5063380;28;20112;-68
2022/07/13 11:19:54;;;;;;;4.80;2.53;;;28.20;81.70;;;;;;5052788;28;20415;-69
2022/07/13 11:22:24;;;;;;;4.10;2.30;;;28.30;83.10;;;;;;5054194;28;20056;-68
2022/07/13 11:25:14;;;;;;;3.60;2.10;;;28.30;81.20;;;;;;5058064;28;20047;-69
2022/07/13 11:27:56;;;;;;;4.28;2.20;;;28.30;81.60;;;;;;5057153;28;20056;-68
2022/07/13 11:30:34;;;;;;;6.20;2.67;;;28.20;82.90;;;;;;5064933;28;20063;-68
2022/07/13 11:33:00;;;;;;;4.80;2.35;;;28.00;83.40;;;;;;5063595;28;20040;-69
2022/07/13 11:35:26;;;;;;;5.32;2.40;;;27.90;84.60;;;;;;5058832;28;20051;-68
2022/07/13 11:37:53;;;;;;;5.75;2.40;;;27.70;85.80;;;;;;5065860;28;20041;-68
2022/07/13 11:40:30;;;;;;;3.33;2.10;;;27.60;86.00;;;;;;5069860;28;20162;-68
2022/07/13 11:42:59;;;;;;;4.77;1.97;;;27.30;86.50;;;;;;5063136;28;20726;-68
2022/07/13 11:45:27;;;;;;;2.88;2.10;;;27.20;86.00;;;;;;5052919;28;20068;-68
2022/07/13 11:48:01;;;;;;;2.97;1.85;;;27.00;85.60;;;;;;5054096;28;20040;-67
2022/07/13 11:50:52;;;;;;;4.63;2.40;;;26.80;86.60;;;;;;5062616;28;20040;-69
2022/07/13 11:53:28;;;;;;;8.57;2.90;;;26.80;89.20;;;;;;5060714;28;20053;-67
2022/07/13 11:55:57;;;;;;;7.68;2.92;;;26.90;89.80;;;;;;5052817;28;20037;-67
2022/07/13 11:58:25;;;;;;;8.27;2.45;;;26.80;90.40;;;;;;5060692;28;20402;-67
2022/07/13 12:00:51;;;;;;;7.85;2.95;;;26.70;91.60;;;;;;5067784;28;20117;-68
2022/07/13 12:03:27;;;;;;;7.53;2.60;;;26.70;92.10;;;;;;5060666;28;20036;-67
2022/07/13 12:06:01;;;;;;;7.68;2.60;;;26.70;91.70;;;;;;5056929;28;20065;-68
2022/07/13 12:08:30;;;;;;;4.25;2.20;;;26.70;92.00;;;;;;5060414;28;20044;-66
2022/07/13 12:10:56;;;;;;;7.50;2.50;;;26.60;92.00;;;;;;5069011;28;20119;-67
2022/07/13 12:13:22;;;;;;;6.15;2.40;;;26.50;92.70;;;;;;5052157;28;20119;-68
2022/07/13 12:15:48;;;;;;;4.93;2.47;;;26.50;92.90;;;;;;5053588;28;20037;-68
2022/07/13 12:18:15;;;;;;;7.03;2.00;;;26.60;93.50;;;;;;5052060;28;20500;-68
2022/07/13 12:20:41;;;;;;;5.63;2.10;;;26.70;92.90;;;;;;5052033;28;20049;-66
2022/07/13 12:23:07;;;;;;;8.43;2.65;;;26.70;93.40;;;;;;5055203;28;20043;-68
2022/07/13 12:25:37;;;;;;;5.05;2.30;;;26.60;93.50;;;;;;5068540;28;20045;-67
2022/07/13 12:28:06;;;;;;;7.45;2.30;;;26.60;92.90;;;;;;5067970;28;20142;-66
2022/07/13 12:30:33;;;;;;;10.80;2.65;;;26.50;93.30;;;;;;5053228;28;20033;-68
2022/07/13 12:33:09;;;;;;;8.77;2.97;;;26.40;93.60;;;;;;5060969;28;20386;-66
2022/07/13 12:35:42;;;;;;;10.10;2.40;;;26.20;94.30;;;;;;5071798;28;20044;-68
2022/07/13 12:38:11;;;;;;;8.57;3.40;;;26.00;94.80;;;;;;5053577;28;20047;-67
2022/07/13 12:40:56;;;;;;;6.20;3.38;;;25.80;95.70;;;;;;5068419;28;20044;-67
2022/07/13 12:43:26;;;;;;;6.75;2.90;;;25.70;95.20;;;;;;5072888;28;20490;-67
2022/07/13 12:45:54;;;;;;;15.05;3.38;;;25.50;95.90;;;;;;5066792;28;20048;-67
2022/07/13 12:48:25;;;;;;;9.63;2.75;;;25.50;96.10;;;;;;5053813;28;20099;-66
2022/07/13 12:51:02;;;;;;;9.63;2.78;;;25.50;96.50;;;;;;5060976;28;20402;-68
2022/07/13 12:53:58;;;;;;;6.88;2.97;;;25.50;96.80;;;;;;5055109;28;20048;-67